sensor_id;sensor_type;location;lat;lon;timestamp;P1;durP1;ratioP1;P2;durP2;ratioP2
9102;SDS011;4587;51.434;6.788;2023-02-28T00:00:12;7.90;;;5.23;;
9102;SDS011;4587;51.434;6.788;2023-02-28T00:02:39;7.73;;;5.63;;
9102;SDS011;4587;51.434;6.788;2023-02-28T00:05:06;9.53;;;5.50;;
9102;SDS011;4587;51.434;6.788;2023-02-28T00:07:33;8.13;;;5.60;;
9102;SDS011;4587;51.434;6.788;2023-02-28T00:10:00;9.10;;;5.50;;
9102;SDS011;4587;51.434;6.788;2023-02-28T00:12:26;6.50;;;4.77;;
9102;SDS011;4587;51.434;6.788;2023-02-28T00:14:52;6.80;;;4.77;;
9102;SDS011;4587;51.434;6.788;2023-02-28T00:17:17;6.50;;;4.53;;
9102;SDS011;4587;51.434;6.788;2023-02-28T00:19:49;6.00;;;4.97;;
9102;SDS011;4587;51.434;6.788;2023-02-28T00:22:17;6.40;;;4.90;;
9102;SDS011;4587;51.434;6.788;2023-02-28T00:24:44;7.80;;;5.47;;
9102;SDS011;4587;51.434;6.788;2023-02-28T00:27:10;8.03;;;5.80;;
9102;SDS011;4587;51.434;6.788;2023-02-28T00:29:36;8.60;;;5.37;;
9102;SDS011;4587;51.434;6.788;2023-02-28T00:32:03;7.87;;;5.43;;
9102;SDS011;4587;51.434;6.788;2023-02-28T00:34:29;8.53;;;5.17;;
9102;SDS011;4587;51.434;6.788;2023-02-28T00:36:54;8.90;;;5.40;;
9102;SDS011;4587;51.434;6.788;2023-02-28T00:39:20;7.97;;;5.43;;
9102;SDS011;4587;51.434;6.788;2023-02-28T00:41:46;9.03;;;5.40;;
9102;SDS011;4587;51.434;6.788;2023-02-28T00:44:11;7.10;;;5.33;;
9102;SDS011;4587;51.434;6.788;2023-02-28T00:46:37;8.73;;;5.27;;
9102;SDS011;4587;51.434;6.788;2023-02-28T00:49:02;7.57;;;5.53;;
9102;SDS011;4587;51.434;6.788;2023-02-28T00:51:28;8.80;;;5.27;;
9102;SDS011;4587;51.434;6.788;2023-02-28T00:53:54;11.33;;;4.97;;
9102;SDS011;4587;51.434;6.788;2023-02-28T00:56:19;9.07;;;5.50;;
9102;SDS011;4587;51.434;6.788;2023-02-28T00:58:45;7.23;;;5.40;;
9102;SDS011;4587;51.434;6.788;2023-02-28T01:01:10;10.10;;;5.20;;
9102;SDS011;4587;51.434;6.788;2023-02-28T01:03:36;9.23;;;5.53;;
9102;SDS011;4587;51.434;6.788;2023-02-28T01:06:01;9.63;;;5.03;;
9102;SDS011;4587;51.434;6.788;2023-02-28T01:08:27;6.30;;;4.83;;
9102;SDS011;4587;51.434;6.788;2023-02-28T01:10:53;7.10;;;4.93;;
9102;SDS011;4587;51.434;6.788;2023-02-28T01:13:19;6.73;;;4.60;;
9102;SDS011;4587;51.434;6.788;2023-02-28T01:15:52;7.43;;;5.13;;
9102;SDS011;4587;51.434;6.788;2023-02-28T01:18:20;10.17;;;5.27;;
9102;SDS011;4587;51.434;6.788;2023-02-28T01:20:46;13.33;;;5.43;;
9102;SDS011;4587;51.434;6.788;2023-02-28T01:23:12;6.43;;;4.60;;
9102;SDS011;4587;51.434;6.788;2023-02-28T01:25:38;5.97;;;4.73;;
9102;SDS011;4587;51.434;6.788;2023-02-28T01:28:03;5.97;;;4.37;;
9102;SDS011;4587;51.434;6.788;2023-02-28T01:30:30;8.43;;;4.57;;
9102;SDS011;4587;51.434;6.788;2023-02-28T01:32:56;7.53;;;4.50;;
9102;SDS011;4587;51.434;6.788;2023-02-28T01:35:22;8.57;;;4.17;;
9102;SDS011;4587;51.434;6.788;2023-02-28T01:37:48;6.07;;;4.40;;
9102;SDS011;4587;51.434;6.788;2023-02-28T01:40:13;8.30;;;4.60;;
9102;SDS011;4587;51.434;6.788;2023-02-28T01:42:39;5.80;;;4.43;;
9102;SDS011;4587;51.434;6.788;2023-02-28T01:45:17;8.00;;;4.20;;
9102;SDS011;4587;51.434;6.788;2023-02-28T01:47:54;5.77;;;4.23;;
9102;SDS011;4587;51.434;6.788;2023-02-28T01:50:25;6.33;;;4.10;;
9102;SDS011;4587;51.434;6.788;2023-02-28T01:52:53;6.87;;;4.10;;
9102;SDS011;4587;51.434;6.788;2023-02-28T01:55:23;10.67;;;4.50;;
9102;SDS011;4587;51.434;6.788;2023-02-28T01:57:54;6.73;;;4.50;;
9102;SDS011;4587;51.434;6.788;2023-02-28T02:00:22;7.20;;;4.00;;
9102;SDS011;4587;51.434;6.788;2023-02-28T02:02:53;6.67;;;3.97;;
9102;SDS011;4587;51.434;6.788;2023-02-28T02:05:22;11.97;;;4.70;;
9102;SDS011;4587;51.434;6.788;2023-02-28T02:07:51;5.60;;;4.00;;
9102;SDS011;4587;51.434;6.788;2023-02-28T02:10:21;7.37;;;3.80;;
9102;SDS011;4587;51.434;6.788;2023-02-28T02:37:59;4.97;;;3.77;;
9102;SDS011;4587;51.434;6.788;2023-02-28T02:40:37;6.97;;;3.27;;
9102;SDS011;4587;51.434;6.788;2023-02-28T02:43:25;8.50;;;4.60;;
9102;SDS011;4587;51.434;6.788;2023-02-28T02:46:06;6.63;;;3.83;;
9102;SDS011;4587;51.434;6.788;2023-02-28T02:48:37;7.13;;;3.57;;
9102;SDS011;4587;51.434;6.788;2023-02-28T02:51:07;5.77;;;3.77;;
9102;SDS011;4587;51.434;6.788;2023-02-28T02:53:38;7.17;;;3.60;;
9102;SDS011;4587;51.434;6.788;2023-02-28T02:56:14;6.33;;;3.57;;
9102;SDS011;4587;51.434;6.788;2023-02-28T02:58:42;5.97;;;3.80;;
9102;SDS011;4587;51.434;6.788;2023-02-28T03:01:18;5.17;;;3.20;;
9102;SDS011;4587;51.434;6.788;2023-02-28T03:03:52;5.47;;;3.63;;
9102;SDS011;4587;51.434;6.788;2023-02-28T03:06:23;5.87;;;3.90;;
9102;SDS011;4587;51.434;6.788;2023-02-28T03:08:49;4.87;;;3.17;;
9102;SDS011;4587;51.434;6.788;2023-02-28T03:11:15;6.83;;;3.40;;
9102;SDS011;4587;51.434;6.788;2023-02-28T03:16:36;7.87;;;3.70;;
9102;SDS011;4587;51.434;6.788;2023-02-28T03:22:08;5.13;;;3.57;;
9102;SDS011;4587;51.434;6.788;2023-02-28T03:28:15;6.77;;;3.83;;
9102;SDS011;4587;51.434;6.788;2023-02-28T03:30:50;7.27;;;4.20;;
9102;SDS011;4587;51.434;6.788;2023-02-28T03:33:28;5.63;;;4.27;;
9102;SDS011;4587;51.434;6.788;2023-02-28T03:35:59;7.80;;;4.23;;
9102;SDS011;4587;51.434;6.788;2023-02-28T03:38:41;6.73;;;4.77;;
9102;SDS011;4587;51.434;6.788;2023-02-28T03:41:17;7.30;;;3.87;;
9102;SDS011;4587;51.434;6.788;2023-02-28T03:43:52;7.50;;;4.60;;
9102;SDS011;4587;51.434;6.788;2023-02-28T03:46:41;6.37;;;4.67;;
9102;SDS011;4587;51.434;6.788;2023-02-28T03:49:25;5.10;;;4.27;;
9102;SDS011;4587;51.434;6.788;2023-02-28T03:51:56;6.93;;;4.83;;
9102;SDS011;4587;51.434;6.788;2023-02-28T03:54:28;9.13;;;4.40;;
9102;SDS011;4587;51.434;6.788;2023-02-28T04:00:07;6.97;;;4.70;;
9102;SDS011;4587;51.434;6.788;2023-02-28T04:02:39;8.87;;;4.60;;
9102;SDS011;4587;51.434;6.788;2023-02-28T04:05:05;11.13;;;5.03;;
9102;SDS011;4587;51.434;6.788;2023-02-28T04:07:32;10.57;;;4.93;;
9102;SDS011;4587;51.434;6.788;2023-02-28T04:09:58;6.87;;;4.47;;
9102;SDS011;4587;51.434;6.788;2023-02-28T04:12:24;7.80;;;4.40;;
9102;SDS011;4587;51.434;6.788;2023-02-28T04:14:50;10.10;;;4.73;;
9102;SDS011;4587;51.434;6.788;2023-02-28T04:17:16;8.47;;;4.40;;
9102;SDS011;4587;51.434;6.788;2023-02-28T04:19:42;7.23;;;4.40;;
9102;SDS011;4587;51.434;6.788;2023-02-28T04:22:09;5.50;;;4.10;;
9102;SDS011;4587;51.434;6.788;2023-02-28T04:24:35;8.03;;;4.30;;
9102;SDS011;4587;51.434;6.788;2023-02-28T04:27:01;6.57;;;4.17;;
9102;SDS011;4587;51.434;6.788;2023-02-28T04:29:27;7.80;;;4.43;;
9102;SDS011;4587;51.434;6.788;2023-02-28T04:31:54;9.60;;;4.67;;
9102;SDS011;4587;51.434;6.788;2023-02-28T04:34:25;4.67;;;3.60;;
9102;SDS011;4587;51.434;6.788;2023-02-28T04:36:51;6.17;;;4.10;;
9102;SDS011;4587;51.434;6.788;2023-02-28T04:39:19;12.13;;;4.00;;
9102;SDS011;4587;51.434;6.788;2023-02-28T04:41:46;6.23;;;4.17;;
9102;SDS011;4587;51.434;6.788;2023-02-28T04:44:12;7.70;;;4.13;;
9102;SDS011;4587;51.434;6.788;2023-02-28T04:46:39;7.00;;;3.97;;
9102;SDS011;4587;51.434;6.788;2023-02-28T04:49:04;6.17;;;4.13;;
9102;SDS011;4587;51.434;6.788;2023-02-28T04:51:30;6.67;;;4.10;;
9102;SDS011;4587;51.434;6.788;2023-02-28T04:53:55;5.07;;;3.63;;
9102;SDS011;4587;51.434;6.788;2023-02-28T04:56:21;7.43;;;4.00;;
9102;SDS011;4587;51.434;6.788;2023-02-28T04:58:47;6.03;;;4.20;;
9102;SDS011;4587;51.434;6.788;2023-02-28T05:01:17;6.73;;;3.83;;
9102;SDS011;4587;51.434;6.788;2023-02-28T05:03:43;7.03;;;3.80;;
9102;SDS011;4587;51.434;6.788;2023-02-28T05:06:10;5.53;;;3.60;;
9102;SDS011;4587;51.434;6.788;2023-02-28T05:08:36;5.87;;;3.63;;
9102;SDS011;4587;51.434;6.788;2023-02-28T05:11:03;5.97;;;3.50;;
9102;SDS011;4587;51.434;6.788;2023-02-28T05:13:36;9.10;;;4.30;;
9102;SDS011;4587;51.434;6.788;2023-02-28T05:16:02;6.33;;;3.67;;
9102;SDS011;4587;51.434;6.788;2023-02-28T05:18:28;5.83;;;3.83;;
9102;SDS011;4587;51.434;6.788;2023-02-28T05:20:53;7.83;;;3.90;;
9102;SDS011;4587;51.434;6.788;2023-02-28T05:23:19;5.77;;;3.43;;
9102;SDS011;4587;51.434;6.788;2023-02-28T05:25:46;5.70;;;3.67;;
9102;SDS011;4587;51.434;6.788;2023-02-28T05:28:11;8.20;;;3.80;;
9102;SDS011;4587;51.434;6.788;2023-02-28T05:30:37;6.57;;;3.67;;
9102;SDS011;4587;51.434;6.788;2023-02-28T05:33:02;8.20;;;3.83;;
9102;SDS011;4587;51.434;6.788;2023-02-28T05:35:28;6.60;;;3.63;;
9102;SDS011;4587;51.434;6.788;2023-02-28T05:37:54;6.87;;;3.70;;
9102;SDS011;4587;51.434;6.788;2023-02-28T05:40:19;5.87;;;3.90;;
9102;SDS011;4587;51.434;6.788;2023-02-28T05:42:48;5.20;;;3.40;;
9102;SDS011;4587;51.434;6.788;2023-02-28T05:45:15;4.40;;;3.40;;
9102;SDS011;4587;51.434;6.788;2023-02-28T05:47:42;8.70;;;3.40;;
9102;SDS011;4587;51.434;6.788;2023-02-28T05:50:07;9.60;;;3.70;;
9102;SDS011;4587;51.434;6.788;2023-02-28T05:52:35;6.90;;;3.67;;
9102;SDS011;4587;51.434;6.788;2023-02-28T05:55:01;6.07;;;3.63;;
9102;SDS011;4587;51.434;6.788;2023-02-28T05:57:27;8.00;;;3.70;;
9102;SDS011;4587;51.434;6.788;2023-02-28T05:59:52;7.60;;;3.43;;
9102;SDS011;4587;51.434;6.788;2023-02-28T06:02:18;6.47;;;3.77;;
9102;SDS011;4587;51.434;6.788;2023-02-28T06:04:44;8.00;;;3.70;;
9102;SDS011;4587;51.434;6.788;2023-02-28T06:07:10;5.83;;;3.43;;
9102;SDS011;4587;51.434;6.788;2023-02-28T06:09:36;8.30;;;3.53;;
9102;SDS011;4587;51.434;6.788;2023-02-28T06:12:02;5.60;;;3.53;;
9102;SDS011;4587;51.434;6.788;2023-02-28T06:14:30;6.27;;;3.43;;
9102;SDS011;4587;51.434;6.788;2023-02-28T06:16:57;7.13;;;3.77;;
9102;SDS011;4587;51.434;6.788;2023-02-28T06:19:23;6.83;;;3.30;;
9102;SDS011;4587;51.434;6.788;2023-02-28T06:21:50;6.73;;;3.10;;
9102;SDS011;4587;51.434;6.788;2023-02-28T06:24:17;5.47;;;3.20;;
9102;SDS011;4587;51.434;6.788;2023-02-28T06:26:47;4.63;;;3.27;;
9102;SDS011;4587;51.434;6.788;2023-02-28T06:29:13;5.03;;;3.23;;
9102;SDS011;4587;51.434;6.788;2023-02-28T06:31:43;6.13;;;3.23;;
9102;SDS011;4587;51.434;6.788;2023-02-28T06:34:10;5.40;;;3.40;;
9102;SDS011;4587;51.434;6.788;2023-02-28T06:36:37;5.43;;;3.40;;
9102;SDS011;4587;51.434;6.788;2023-02-28T06:39:03;5.13;;;3.20;;
9102;SDS011;4587;51.434;6.788;2023-02-28T06:41:29;4.67;;;3.03;;
9102;SDS011;4587;51.434;6.788;2023-02-28T06:43:55;5.53;;;3.23;;
9102;SDS011;4587;51.434;6.788;2023-02-28T06:46:20;4.80;;;3.10;;
9102;SDS011;4587;51.434;6.788;2023-02-28T06:48:46;5.77;;;2.90;;
9102;SDS011;4587;51.434;6.788;2023-02-28T06:51:13;6.23;;;3.20;;
9102;SDS011;4587;51.434;6.788;2023-02-28T06:53:41;6.87;;;3.20;;
9102;SDS011;4587;51.434;6.788;2023-02-28T06:56:07;3.93;;;3.10;;
9102;SDS011;4587;51.434;6.788;2023-02-28T06:58:34;4.57;;;3.03;;
9102;SDS011;4587;51.434;6.788;2023-02-28T07:01:00;5.00;;;3.00;;
9102;SDS011;4587;51.434;6.788;2023-02-28T07:03:26;7.33;;;2.90;;
9102;SDS011;4587;51.434;6.788;2023-02-28T07:05:51;4.80;;;3.17;;
9102;SDS011;4587;51.434;6.788;2023-02-28T07:08:17;9.93;;;2.80;;
9102;SDS011;4587;51.434;6.788;2023-02-28T07:10:43;4.33;;;3.20;;
9102;SDS011;4587;51.434;6.788;2023-02-28T07:13:09;6.00;;;3.23;;
9102;SDS011;4587;51.434;6.788;2023-02-28T07:15:35;6.27;;;3.20;;
9102;SDS011;4587;51.434;6.788;2023-02-28T07:18:02;6.77;;;3.30;;
9102;SDS011;4587;51.434;6.788;2023-02-28T07:20:28;4.43;;;3.20;;
9102;SDS011;4587;51.434;6.788;2023-02-28T07:22:54;6.60;;;3.07;;
9102;SDS011;4587;51.434;6.788;2023-02-28T07:25:24;4.07;;;2.77;;
9102;SDS011;4587;51.434;6.788;2023-02-28T07:27:50;7.20;;;3.03;;
9102;SDS011;4587;51.434;6.788;2023-02-28T07:30:16;6.27;;;3.00;;
9102;SDS011;4587;51.434;6.788;2023-02-28T07:32:42;3.93;;;2.80;;
9102;SDS011;4587;51.434;6.788;2023-02-28T07:35:08;5.27;;;2.90;;
9102;SDS011;4587;51.434;6.788;2023-02-28T07:37:34;4.33;;;3.00;;
9102;SDS011;4587;51.434;6.788;2023-02-28T07:40:06;5.20;;;2.70;;
9102;SDS011;4587;51.434;6.788;2023-02-28T07:42:35;4.37;;;2.93;;
9102;SDS011;4587;51.434;6.788;2023-02-28T07:45:01;4.43;;;2.90;;
9102;SDS011;4587;51.434;6.788;2023-02-28T07:47:28;3.20;;;2.27;;
9102;SDS011;4587;51.434;6.788;2023-02-28T07:49:54;7.37;;;2.80;;
9102;SDS011;4587;51.434;6.788;2023-02-28T07:52:20;3.43;;;2.60;;
9102;SDS011;4587;51.434;6.788;2023-02-28T07:54:46;5.40;;;2.70;;
9102;SDS011;4587;51.434;6.788;2023-02-28T07:57:11;5.00;;;2.87;;
9102;SDS011;4587;51.434;6.788;2023-02-28T07:59:37;4.50;;;3.03;;
9102;SDS011;4587;51.434;6.788;2023-02-28T08:02:02;5.70;;;3.20;;
9102;SDS011;4587;51.434;6.788;2023-02-28T08:04:31;6.07;;;3.00;;
9102;SDS011;4587;51.434;6.788;2023-02-28T08:06:57;4.87;;;2.97;;
9102;SDS011;4587;51.434;6.788;2023-02-28T08:09:22;6.33;;;3.33;;
9102;SDS011;4587;51.434;6.788;2023-02-28T08:11:48;5.23;;;2.87;;
9102;SDS011;4587;51.434;6.788;2023-02-28T08:14:14;8.57;;;3.07;;
9102;SDS011;4587;51.434;6.788;2023-02-28T08:16:39;5.70;;;3.10;;
9102;SDS011;4587;51.434;6.788;2023-02-28T08:19:05;3.77;;;2.83;;
9102;SDS011;4587;51.434;6.788;2023-02-28T08:21:32;4.20;;;2.60;;
9102;SDS011;4587;51.434;6.788;2023-02-28T08:23:57;5.93;;;3.30;;
9102;SDS011;4587;51.434;6.788;2023-02-28T08:26:24;6.30;;;2.97;;
9102;SDS011;4587;51.434;6.788;2023-02-28T08:28:49;5.50;;;2.93;;
9102;SDS011;4587;51.434;6.788;2023-02-28T08:31:15;5.63;;;2.83;;
9102;SDS011;4587;51.434;6.788;2023-02-28T08:33:42;4.97;;;3.10;;
9102;SDS011;4587;51.434;6.788;2023-02-28T08:36:09;5.70;;;3.33;;
9102;SDS011;4587;51.434;6.788;2023-02-28T08:38:35;4.90;;;2.87;;
9102;SDS011;4587;51.434;6.788;2023-02-28T08:41:05;8.00;;;3.17;;
9102;SDS011;4587;51.434;6.788;2023-02-28T08:43:34;3.87;;;2.30;;
9102;SDS011;4587;51.434;6.788;2023-02-28T08:46:00;3.67;;;2.70;;
9102;SDS011;4587;51.434;6.788;2023-02-28T08:48:27;4.03;;;2.60;;
9102;SDS011;4587;51.434;6.788;2023-02-28T08:50:54;5.20;;;2.93;;
9102;SDS011;4587;51.434;6.788;2023-02-28T08:53:21;5.03;;;2.77;;
9102;SDS011;4587;51.434;6.788;2023-02-28T08:55:47;7.47;;;2.70;;
9102;SDS011;4587;51.434;6.788;2023-02-28T08:58:19;5.23;;;2.77;;
9102;SDS011;4587;51.434;6.788;2023-02-28T09:00:45;4.00;;;2.70;;
9102;SDS011;4587;51.434;6.788;2023-02-28T09:03:10;3.70;;;2.53;;
9102;SDS011;4587;51.434;6.788;2023-02-28T09:05:36;3.80;;;2.23;;
9102;SDS011;4587;51.434;6.788;2023-02-28T09:08:02;4.87;;;2.10;;
9102;SDS011;4587;51.434;6.788;2023-02-28T09:10:27;3.07;;;2.20;;
9102;SDS011;4587;51.434;6.788;2023-02-28T09:12:53;6.50;;;2.50;;
9102;SDS011;4587;51.434;6.788;2023-02-28T09:15:18;3.53;;;2.20;;
9102;SDS011;4587;51.434;6.788;2023-02-28T09:17:44;4.53;;;2.30;;
9102;SDS011;4587;51.434;6.788;2023-02-28T09:20:09;2.53;;;1.80;;
9102;SDS011;4587;51.434;6.788;2023-02-28T09:22:35;3.13;;;2.10;;
9102;SDS011;4587;51.434;6.788;2023-02-28T09:25:01;3.03;;;2.20;;
9102;SDS011;4587;51.434;6.788;2023-02-28T09:27:27;4.00;;;2.20;;
9102;SDS011;4587;51.434;6.788;2023-02-28T09:29:52;3.97;;;2.20;;
9102;SDS011;4587;51.434;6.788;2023-02-28T09:32:18;3.80;;;2.13;;
9102;SDS011;4587;51.434;6.788;2023-02-28T09:34:44;4.43;;;2.40;;
9102;SDS011;4587;51.434;6.788;2023-02-28T09:37:09;3.80;;;2.20;;
9102;SDS011;4587;51.434;6.788;2023-02-28T09:39:35;5.03;;;2.20;;
9102;SDS011;4587;51.434;6.788;2023-02-28T09:42:00;4.47;;;2.30;;
9102;SDS011;4587;51.434;6.788;2023-02-28T09:44:31;3.73;;;2.10;;
9102;SDS011;4587;51.434;6.788;2023-02-28T09:47:05;6.67;;;2.57;;
9102;SDS011;4587;51.434;6.788;2023-02-28T09:49:52;3.17;;;2.10;;
9102;SDS011;4587;51.434;6.788;2023-02-28T09:52:21;5.83;;;2.23;;
9102;SDS011;4587;51.434;6.788;2023-02-28T09:54:53;4.30;;;2.70;;
9102;SDS011;4587;51.434;6.788;2023-02-28T09:57:32;2.80;;;2.27;;
9102;SDS011;4587;51.434;6.788;2023-02-28T10:08:11;2.23;;;1.80;;
9102;SDS011;4587;51.434;6.788;2023-02-28T10:10:45;3.37;;;2.10;;
9102;SDS011;4587;51.434;6.788;2023-02-28T10:18:55;4.17;;;2.00;;
9102;SDS011;4587;51.434;6.788;2023-02-28T10:21:31;3.87;;;1.93;;
9102;SDS011;4587;51.434;6.788;2023-02-28T10:24:02;3.70;;;2.00;;
9102;SDS011;4587;51.434;6.788;2023-02-28T10:26:34;3.10;;;2.27;;
9102;SDS011;4587;51.434;6.788;2023-02-28T10:29:01;2.77;;;2.23;;
9102;SDS011;4587;51.434;6.788;2023-02-28T10:31:28;2.10;;;1.70;;
9102;SDS011;4587;51.434;6.788;2023-02-28T10:33:54;3.40;;;1.90;;
9102;SDS011;4587;51.434;6.788;2023-02-28T10:36:20;5.00;;;1.90;;
9102;SDS011;4587;51.434;6.788;2023-02-28T10:38:46;3.57;;;2.00;;
9102;SDS011;4587;51.434;6.788;2023-02-28T10:41:14;5.90;;;1.80;;
9102;SDS011;4587;51.434;6.788;2023-02-28T10:43:41;3.43;;;1.80;;
9102;SDS011;4587;51.434;6.788;2023-02-28T10:48:34;1.77;;;1.60;;
9102;SDS011;4587;51.434;6.788;2023-02-28T10:51:08;2.90;;;1.80;;
9102;SDS011;4587;51.434;6.788;2023-02-28T10:53:40;3.57;;;1.73;;
9102;SDS011;4587;51.434;6.788;2023-02-28T10:56:16;3.03;;;1.90;;
9102;SDS011;4587;51.434;6.788;2023-02-28T10:58:53;3.53;;;1.83;;
9102;SDS011;4587;51.434;6.788;2023-02-28T11:03:52;2.83;;;1.80;;
9102;SDS011;4587;51.434;6.788;2023-02-28T11:06:22;2.47;;;1.70;;
9102;SDS011;4587;51.434;6.788;2023-02-28T11:09:06;3.17;;;1.70;;
9102;SDS011;4587;51.434;6.788;2023-02-28T11:11:50;3.33;;;2.00;;
9102;SDS011;4587;51.434;6.788;2023-02-28T11:14:22;2.63;;;1.80;;
9102;SDS011;4587;51.434;6.788;2023-02-28T11:16:51;2.23;;;1.40;;
9102;SDS011;4587;51.434;6.788;2023-02-28T11:19:25;1.77;;;1.40;;
9102;SDS011;4587;51.434;6.788;2023-02-28T11:21:58;2.47;;;1.60;;
9102;SDS011;4587;51.434;6.788;2023-02-28T11:24:30;2.33;;;1.50;;
9102;SDS011;4587;51.434;6.788;2023-02-28T11:27:01;1.70;;;1.60;;
9102;SDS011;4587;51.434;6.788;2023-02-28T11:29:29;2.23;;;1.60;;
9102;SDS011;4587;51.434;6.788;2023-02-28T11:34:33;2.20;;;1.50;;
9102;SDS011;4587;51.434;6.788;2023-02-28T11:37:00;2.93;;;1.60;;
9102;SDS011;4587;51.434;6.788;2023-02-28T11:39:29;3.17;;;1.80;;
9102;SDS011;4587;51.434;6.788;2023-02-28T11:42:59;2.60;;;1.40;;
9102;SDS011;4587;51.434;6.788;2023-02-28T11:45:07;2.33;;;1.50;;
9102;SDS011;4587;51.434;6.788;2023-02-28T11:48:04;2.47;;;1.80;;
9102;SDS011;4587;51.434;6.788;2023-02-28T11:56:49;2.90;;;1.80;;
9102;SDS011;4587;51.434;6.788;2023-02-28T12:05:34;1.70;;;1.60;;
9102;SDS011;4587;51.434;6.788;2023-02-28T12:08:20;4.17;;;1.87;;
9102;SDS011;4587;51.434;6.788;2023-02-28T12:11:03;3.10;;;2.00;;
9102;SDS011;4587;51.434;6.788;2023-02-28T12:16:20;1.87;;;1.60;;
9102;SDS011;4587;51.434;6.788;2023-02-28T12:26:45;4.00;;;2.97;;
9102;SDS011;4587;51.434;6.788;2023-02-28T12:29:17;2.83;;;1.90;;
9102;SDS011;4587;51.434;6.788;2023-02-28T12:31:55;2.17;;;1.70;;
9102;SDS011;4587;51.434;6.788;2023-02-28T12:34:36;3.23;;;2.10;;
9102;SDS011;4587;51.434;6.788;2023-02-28T12:37:10;2.40;;;2.00;;
9102;SDS011;4587;51.434;6.788;2023-02-28T12:39:47;2.50;;;1.80;;
9102;SDS011;4587;51.434;6.788;2023-02-28T12:42:24;3.23;;;2.10;;
9102;SDS011;4587;51.434;6.788;2023-02-28T12:44:54;2.53;;;2.03;;
9102;SDS011;4587;51.434;6.788;2023-02-28T12:47:25;2.90;;;2.00;;
9102;SDS011;4587;51.434;6.788;2023-02-28T12:52:41;3.13;;;2.27;;
9102;SDS011;4587;51.434;6.788;2023-02-28T12:55:14;3.20;;;2.00;;
9102;SDS011;4587;51.434;6.788;2023-02-28T12:57:52;3.73;;;1.80;;
9102;SDS011;4587;51.434;6.788;2023-02-28T13:00:23;3.13;;;1.90;;
9102;SDS011;4587;51.434;6.788;2023-02-28T13:03:17;2.23;;;1.80;;
9102;SDS011;4587;51.434;6.788;2023-02-28T13:06:05;2.63;;;2.00;;
9102;SDS011;4587;51.434;6.788;2023-02-28T13:11:26;2.90;;;2.17;;
9102;SDS011;4587;51.434;6.788;2023-02-28T13:13:59;2.83;;;1.87;;
9102;SDS011;4587;51.434;6.788;2023-02-28T13:16:26;3.17;;;2.30;;
9102;SDS011;4587;51.434;6.788;2023-02-28T13:18:52;2.13;;;1.93;;
9102;SDS011;4587;51.434;6.788;2023-02-28T13:21:41;4.03;;;1.83;;
9102;SDS011;4587;51.434;6.788;2023-02-28T13:24:08;4.20;;;2.00;;
9102;SDS011;4587;51.434;6.788;2023-02-28T13:34:31;2.50;;;2.30;;
9102;SDS011;4587;51.434;6.788;2023-02-28T13:47:31;4.03;;;2.63;;
9102;SDS011;4587;51.434;6.788;2023-02-28T13:52:44;3.43;;;2.40;;
9102;SDS011;4587;51.434;6.788;2023-02-28T14:06:58;2.63;;;2.20;;
9102;SDS011;4587;51.434;6.788;2023-02-28T14:09:27;4.10;;;2.60;;
9102;SDS011;4587;51.434;6.788;2023-02-28T14:15:23;5.57;;;2.70;;
9102;SDS011;4587;51.434;6.788;2023-02-28T14:20:47;3.30;;;2.43;;
9102;SDS011;4587;51.434;6.788;2023-02-28T14:31:58;3.90;;;2.70;;
9102;SDS011;4587;51.434;6.788;2023-02-28T14:34:49;3.90;;;2.80;;
9102;SDS011;4587;51.434;6.788;2023-02-28T14:37:37;4.23;;;2.70;;
9102;SDS011;4587;51.434;6.788;2023-02-28T14:40:11;4.87;;;2.67;;
9102;SDS011;4587;51.434;6.788;2023-02-28T14:42:45;3.30;;;2.73;;
9102;SDS011;4587;51.434;6.788;2023-02-28T14:45:32;3.53;;;2.70;;
9102;SDS011;4587;51.434;6.788;2023-02-28T14:48:01;2.90;;;2.60;;
9102;SDS011;4587;51.434;6.788;2023-02-28T14:50:30;3.20;;;2.60;;
9102;SDS011;4587;51.434;6.788;2023-02-28T14:53:00;3.57;;;2.80;;
9102;SDS011;4587;51.434;6.788;2023-02-28T14:55:31;2.97;;;2.67;;
9102;SDS011;4587;51.434;6.788;2023-02-28T14:58:01;5.20;;;2.93;;
9102;SDS011;4587;51.434;6.788;2023-02-28T15:00:31;4.40;;;3.00;;
9102;SDS011;4587;51.434;6.788;2023-02-28T15:02:58;3.93;;;3.00;;
9102;SDS011;4587;51.434;6.788;2023-02-28T15:05:32;3.27;;;2.60;;
9102;SDS011;4587;51.434;6.788;2023-02-28T15:10:30;3.07;;;2.70;;
9102;SDS011;4587;51.434;6.788;2023-02-28T15:13:00;5.63;;;2.70;;
9102;SDS011;4587;51.434;6.788;2023-02-28T15:15:54;4.13;;;2.70;;
9102;SDS011;4587;51.434;6.788;2023-02-28T15:18:36;4.40;;;2.67;;
9102;SDS011;4587;51.434;6.788;2023-02-28T15:21:28;4.53;;;2.80;;
9102;SDS011;4587;51.434;6.788;2023-02-28T15:24:07;4.03;;;2.90;;
9102;SDS011;4587;51.434;6.788;2023-02-28T15:26:40;4.13;;;2.93;;
9102;SDS011;4587;51.434;6.788;2023-02-28T15:29:11;4.73;;;2.87;;
9102;SDS011;4587;51.434;6.788;2023-02-28T15:31:50;4.67;;;3.20;;
9102;SDS011;4587;51.434;6.788;2023-02-28T15:34:22;3.53;;;3.23;;
9102;SDS011;4587;51.434;6.788;2023-02-28T15:36:54;7.57;;;3.10;;
9102;SDS011;4587;51.434;6.788;2023-02-28T15:39:24;6.07;;;3.07;;
9102;SDS011;4587;51.434;6.788;2023-02-28T15:41:52;3.93;;;2.87;;
9102;SDS011;4587;51.434;6.788;2023-02-28T15:44:34;3.47;;;3.03;;
9102;SDS011;4587;51.434;6.788;2023-02-28T15:47:01;4.07;;;3.00;;
9102;SDS011;4587;51.434;6.788;2023-02-28T15:49:54;6.57;;;3.20;;
9102;SDS011;4587;51.434;6.788;2023-02-28T15:52:27;3.97;;;3.10;;
9102;SDS011;4587;51.434;6.788;2023-02-28T15:54:59;3.33;;;2.93;;
9102;SDS011;4587;51.434;6.788;2023-02-28T15:57:38;4.00;;;2.87;;
9102;SDS011;4587;51.434;6.788;2023-02-28T16:00:08;4.93;;;2.70;;
9102;SDS011;4587;51.434;6.788;2023-02-28T16:02:38;4.40;;;2.90;;
9102;SDS011;4587;51.434;6.788;2023-02-28T16:07:34;4.73;;;3.10;;
9102;SDS011;4587;51.434;6.788;2023-02-28T16:10:01;4.33;;;2.50;;
9102;SDS011;4587;51.434;6.788;2023-02-28T16:12:28;3.77;;;3.10;;
9102;SDS011;4587;51.434;6.788;2023-02-28T16:14:56;6.00;;;2.77;;
9102;SDS011;4587;51.434;6.788;2023-02-28T16:17:27;3.60;;;2.93;;
9102;SDS011;4587;51.434;6.788;2023-02-28T16:19:55;3.00;;;2.70;;
9102;SDS011;4587;51.434;6.788;2023-02-28T16:22:21;5.53;;;3.00;;
9102;SDS011;4587;51.434;6.788;2023-02-28T16:24:47;3.13;;;2.60;;
9102;SDS011;4587;51.434;6.788;2023-02-28T16:27:17;3.80;;;2.77;;
9102;SDS011;4587;51.434;6.788;2023-02-28T16:30:00;3.47;;;3.00;;
9102;SDS011;4587;51.434;6.788;2023-02-28T16:32:26;3.63;;;3.03;;
9102;SDS011;4587;51.434;6.788;2023-02-28T16:34:52;3.77;;;3.10;;
9102;SDS011;4587;51.434;6.788;2023-02-28T16:37:18;3.73;;;2.93;;
9102;SDS011;4587;51.434;6.788;2023-02-28T16:39:44;5.50;;;3.00;;
9102;SDS011;4587;51.434;6.788;2023-02-28T16:42:19;3.20;;;2.90;;
9102;SDS011;4587;51.434;6.788;2023-02-28T16:44:50;4.07;;;3.00;;
9102;SDS011;4587;51.434;6.788;2023-02-28T16:47:17;4.00;;;3.00;;
9102;SDS011;4587;51.434;6.788;2023-02-28T16:49:42;4.57;;;2.90;;
9102;SDS011;4587;51.434;6.788;2023-02-28T16:52:09;4.83;;;2.90;;
9102;SDS011;4587;51.434;6.788;2023-02-28T16:54:36;5.47;;;3.10;;
9102;SDS011;4587;51.434;6.788;2023-02-28T16:57:02;4.90;;;3.10;;
9102;SDS011;4587;51.434;6.788;2023-02-28T16:59:29;4.43;;;3.07;;
9102;SDS011;4587;51.434;6.788;2023-02-28T17:01:55;6.13;;;3.20;;
9102;SDS011;4587;51.434;6.788;2023-02-28T17:04:25;4.17;;;2.83;;
9102;SDS011;4587;51.434;6.788;2023-02-28T17:06:51;4.83;;;3.27;;
9102;SDS011;4587;51.434;6.788;2023-02-28T17:09:18;5.70;;;3.00;;
9102;SDS011;4587;51.434;6.788;2023-02-28T17:11:45;4.63;;;3.10;;
9102;SDS011;4587;51.434;6.788;2023-02-28T17:14:12;5.57;;;2.90;;
9102;SDS011;4587;51.434;6.788;2023-02-28T17:16:38;3.63;;;3.00;;
9102;SDS011;4587;51.434;6.788;2023-02-28T17:19:06;4.87;;;3.07;;
9102;SDS011;4587;51.434;6.788;2023-02-28T17:21:36;6.97;;;3.10;;
9102;SDS011;4587;51.434;6.788;2023-02-28T17:24:02;4.40;;;3.13;;
9102;SDS011;4587;51.434;6.788;2023-02-28T17:26:28;6.00;;;3.30;;
9102;SDS011;4587;51.434;6.788;2023-02-28T17:28:55;4.57;;;3.17;;
9102;SDS011;4587;51.434;6.788;2023-02-28T17:31:22;7.70;;;4.53;;
9102;SDS011;4587;51.434;6.788;2023-02-28T17:33:48;5.03;;;3.57;;
9102;SDS011;4587;51.434;6.788;2023-02-28T17:36:15;4.83;;;3.30;;
9102;SDS011;4587;51.434;6.788;2023-02-28T17:38:46;4.43;;;3.63;;
9102;SDS011;4587;51.434;6.788;2023-02-28T17:41:13;8.40;;;3.90;;
9102;SDS011;4587;51.434;6.788;2023-02-28T17:43:38;6.40;;;3.50;;
9102;SDS011;4587;51.434;6.788;2023-02-28T17:46:05;6.60;;;4.37;;
9102;SDS011;4587;51.434;6.788;2023-02-28T17:48:31;5.90;;;4.37;;